Andover, OH (44003)

12:03 AM EST on November 19, 2017 (GMT -0500)
West Andover | | Change Station
Active Advisory: Wind Advisory

Elev 1070 ft 41.61 °N, 80.61 °W | Updated 35 seconds ago

Rain
Rain
39.9 °F
Feels Like 34 °F
N
8.0
Wind Variable Wind from West

Today
High -- | Low -- °F
--% Chance of Precip.
Yesterday
High -- | Low -- °F
Precip. -- in
Pressure 29.29 in
Visibility 10.0 miles
Clouds Mostly Cloudy 800 ft
Overcast 1400 ft
Windchill 34 °F
Dew Point 38 °F
Humidity 95%
Rainfall 0.00 in
Snow Depth Not available.
7:16 AM 4:58 PM
New Moon, 0% visible
METAR KHZY 190453Z AUTO 31015G25KT 10SM -RA BKN008 OVC014 05/04 A2927 RMK AO2 PK WND 31032/0419 SLP916 P0014 T00500039 401220028
Pressure 29.29 in
Visibility 10.0 miles
Clouds Mostly Cloudy 800 ft
Overcast 1400 ft
Windchill 34 °F
Dew Point 38 °F
Humidity 95%
Rainfall 0.00 in
Snow Depth Not available.
7:16 AM 4:58 PM
New Moon, 0% visible
METAR KHZY 190453Z AUTO 31015G25KT 10SM -RA BKN008 OVC014 05/04 A2927 RMK AO2 PK WND 31032/0419 SLP916 P0014 T00500039 401220028

Get Your Daily Forecast Email!

Thanks for signing up!

Be on the lookout for a verification email in your inbox.

You'll start receiving severe weather alerts in your inbox..

×

10-Day Weather Forecast

Almanac

Astronomy

Nov. 19, 2017 Rise Set
Actual Time
Civil Twilight
Nautical Twilight
Astronomical Twilight
Moon
Length of Visible Light
Length of Day
Tomorrow will be .
, % of the Moon is Illuminated

Today's Extremes

State Highs State Lows

Community

WunderPhotos

Category 6

Welcome to Category 6. This is the collective home for Weather Underground's featured writeups by Dr. Jeff Masters (right), Bob Henson (left), Chris Burt, and other regular contributors.

Nearby

Air Quality

  Air Quality AQ Index Pollutant
Not available.

Snow Depth

Station Depth Elevation

Earthquake Activity

City Distance Mag. Time & Date
Minimum magnitude displayed is 2.5.

Coastal Water Temperatures

Place Temperature

Stations

Nearby Weather Stations

Station Location Temp. Windchill Dew Point Humidity Wind Precip. Elev Updated Type
                   

Watches & Warnings

Wind Advisory
Issued: 9:40 PM EST Nov. 18, 2017 – National Weather Service

... Wind Advisory remains in effect until 10 am EST Sunday...

* timing... tonight and early Sunday.

* Winds... northwest at 20 to 35 mph. Wind gusts to 50 mph are
possible.

* Impacts... downed branches and power lines. Objects that are
not secured such as trash cans or lawn furniture may be blown
away.

Precautionary/preparedness actions...

Winds of this magnitude can cause minor property damage without
extra precautions. Motorists should use caution especially
motorists in high profile vehicles.